KALX/ALX METAR and TAF weather

Enter ICAO airport designator
Station Type Date Time Source
KALX METAR 2021/01/17 19:15 UTC NOAA

KALX 171915Z AUTO 21007G14KT 200V260 10SM CLR 11/M01 A2993 RMK AO2 T01051012


Station Type Date Time Source
KALX Decoded METAR 2021/01/17 19:15 UTC NOAA

Alexander City, Thomas C Russell Field Airport, AL, United States (KALX) 32-54-53N 085-57-46W
Jan 17, 2021 - 02:15 PM EST / 2021.01.17 1915 UTC
Wind: from the SSW (210 degrees) at 8 MPH (7 KT) gusting to 16 MPH (14 KT) (direction variable):0
Visibility: 10 mile(s):0
Sky conditions: clear
Temperature: 50.9 F (10.5 C)
Dew Point: 29.8 F (-1.2 C)
Relative Humidity: 44%
Pressure (altimeter): 29.93 in. Hg (1013 hPa)
ob: KALX 171915Z AUTO 21007G14KT 200V260 10SM CLR 11/M01 A2993 RMK AO2 T01051012
cycle: 19

Station Type Date Time Source
KALX TAF UTC NOAA

Error!

Example: see airport list